Time;durP1;ratioP1;P1;durP2;ratioP2;P2;SDS_P1;SDS_P2;PMS_P1;PMS_P2;Temp;Humidity;BMP_temperature;BMP_pressure;BME280_temperature;BME280_humidity;BME280_pressure;Samples;Min_cycle;Max_cycle;Signal;HPM_P1;HPM_P2
2021/01/19 00:00:12;;;;;;;;;;;;;;;;;;4994440;28;19996;-62
2021/01/19 00:02:39;;;;;;;;;;;;;;;;;;4993753;28;19936;-63
2021/01/19 00:05:06;;;;;;;;;;;;;;;;;;4997544;28;20020;-62
2021/01/19 00:07:33;;;;;;;;;;;;;;;;;;4994859;28;19934;-62
2021/01/19 00:10:00;;;;;;;;;;;;;;;;;;4994130;28;19936;-62
2021/01/19 00:12:27;;;;;;;;;;;;;;;;;;4993667;28;20460;-62
2021/01/19 00:14:54;;;;;;;;;;;;;;;;;;4993323;28;19934;-63
2021/01/19 00:17:21;;;;;;;;;;;;;;;;;;4994552;28;19929;-62
2021/01/19 00:19:48;;;;;;;;;;;;;;;;;;4998375;28;20037;-62
2021/01/19 00:22:15;;;;;;;;;;;;;;;;;;4994894;28;20020;-61
2021/01/19 00:24:42;;;;;;;;;;;;;;;;;;4995480;28;19929;-61
2021/01/19 00:27:09;;;;;;;;;;;;;;;;;;4995759;28;19926;-64
2021/01/19 00:29:37;;;;;;;;;;;;;;;;;;4993430;28;19936;-67
2021/01/19 00:32:04;;;;;;;;;;;;;;;;;;4982989;28;19926;-62
2021/01/19 00:34:31;;;;;;;;;;;;;;;;;;4993230;28;19925;-67
2021/01/19 00:36:58;;;;;;;;;;;;;;;;;;4997130;28;20020;-63
2021/01/19 00:39:25;;;;;;;;;;;;;;;;;;4992920;28;19925;-63
2021/01/19 00:41:52;;;;;;;;;;;;;;;;;;4993878;28;19940;-61
2021/01/19 00:44:20;;;;;;;;;;;;;;;;;;4993624;28;19925;-63
2021/01/19 00:46:47;;;;;;;;;;;;;;;;;;4993505;28;19936;-68
2021/01/19 00:49:14;;;;;;;;;;;;;;;;;;4994103;28;20312;-62
2021/01/19 00:51:41;;;;;;;;;;;;;;;;;;4993615;28;19925;-62
2021/01/19 00:54:08;;;;;;;;;;;;;;;;;;4997273;28;19937;-62
2021/01/19 00:56:36;;;;;;;;;;;;;;;;;;5013279;28;19936;-61
2021/01/19 00:59:03;;;;;;;;;;;;;;;;;;5004553;28;20305;-62
2021/01/19 01:01:30;;;;;;;;;;;;;;;;;;4993562;28;19926;-64
2021/01/19 01:03:57;;;;;;;;;;;;;;;;;;4992582;28;20425;-62
2021/01/19 01:06:24;;;;;;;;;;;;;;;;;;4990709;28;19932;-62
2021/01/19 01:08:51;;;;;;;;;;;;;;;;;;4978114;28;20009;-62
2021/01/19 01:11:18;;;;;;;;;;;;;;;;;;4992871;28;20390;-62
2021/01/19 01:13:45;;;;;;;;;;;;;;;;;;4992286;28;19940;-62
2021/01/19 01:16:12;;;;;;;;;;;;;;;;;;4993679;28;19925;-62
2021/01/19 01:18:40;;;;;;;;;;;;;;;;;;4991805;28;19929;-62
2021/01/19 01:21:07;;;;;;;;;;;;;;;;;;4993807;28;19933;-61
2021/01/19 01:23:34;;;;;;;;;;;;;;;;;;4991391;28;19926;-62
2021/01/19 01:26:01;;;;;;;;;;;;;;;;;;4992648;28;20301;-64
2021/01/19 01:28:28;;;;;;;;;;;;;;;;;;4991150;28;20019;-61
2021/01/19 01:30:56;;;;;;;;;;;;;;;;;;4993188;28;19930;-61
2021/01/19 01:33:23;;;;;;;;;;;;;;;;;;4992561;28;19934;-62
2021/01/19 01:35:50;;;;;;;;;;;;;;;;;;4992819;28;19956;-62
2021/01/19 01:38:17;;;;;;;;;;;;;;;;;;4993095;28;20044;-62
2021/01/19 01:40:44;;;;;;;;;;;;;;;;;;4993494;28;19929;-61
2021/01/19 01:43:11;;;;;;;;;;;;;;;;;;4992968;28;20441;-60
2021/01/19 01:45:38;;;;;;;;;;;;;;;;;;4992694;28;19926;-60
2021/01/19 01:48:05;;;;;;;;;;;;;;;;;;4992055;28;20382;-61
2021/01/19 01:50:32;;;;;;;;;;;;;;;;;;4992171;28;20020;-63
2021/01/19 01:52:59;;;;;;;;;;;;;;;;;;4993265;28;19926;-60
2021/01/19 01:55:27;;;;;;;;;;;;;;;;;;4991976;28;19931;-63
2021/01/19 01:57:55;;;;;;;;;;;;;;;;;;4992331;28;20378;-61
2021/01/19 02:00:22;;;;;;;;;;;;;;;;;;4975499;28;19969;-61
2021/01/19 02:02:49;;;;;;;;;;;;;;;;;;5056129;23;19932;-65
2021/01/19 02:05:16;;;;;;;;;;;;;;;;;;4993648;28;20422;-64
2021/01/19 02:07:43;;;;;;;;;;;;;;;;;;4993604;28;20014;-65
2021/01/19 02:10:11;;;;;;;;;;;;;;;;;;4994087;28;19936;-64
2021/01/19 02:12:38;;;;;;;;;;;;;;;;;;4993914;28;19965;-64
2021/01/19 02:15:05;;;;;;;;;;;;;;;;;;4994482;28;19926;-64
2021/01/19 02:17:32;;;;;;;;;;;;;;;;;;4993323;28;19936;-65
2021/01/19 02:19:59;;;;;;;;;;;;;;;;;;4993030;28;19932;-64
2021/01/19 02:22:26;;;;;;;;;;;;;;;;;;4993668;28;19925;-65
2021/01/19 02:24:53;;;;;;;;;;;;;;;;;;4989705;28;19926;-65
2021/01/19 02:27:20;;;;;;;;;;;;;;;;;;4991024;28;20295;-65
2021/01/19 02:29:48;;;;;;;;;;;;;;;;;;4989331;28;19929;-64
2021/01/19 02:32:15;;;;;;;;;;;;;;;;;;4991161;28;19925;-65
2021/01/19 02:34:42;;;;;;;;;;;;;;;;;;4992531;28;19925;-65
2021/01/19 02:37:09;;;;;;;;;;;;;;;;;;4990762;28;19945;-65
2021/01/19 02:39:36;;;;;;;;;;;;;;;;;;4989636;28;20431;-66
2021/01/19 02:42:04;;;;;;;;;;;;;;;;;;4988209;28;19936;-64
2021/01/19 02:44:31;;;;;;;;;;;;;;;;;;4987965;28;20482;-65
2021/01/19 02:46:59;;;;;;;;;;;;;;;;;;4983356;28;20012;-65
2021/01/19 02:49:26;;;;;;;;;;;;;;;;;;4986680;28;20746;-64
2021/01/19 02:51:53;;;;;;;;;;;;;;;;;;4989687;28;19944;-64
2021/01/19 02:54:20;;;;;;;;;;;;;;;;;;4983822;28;20012;-65
2021/01/19 02:56:47;;;;;;;;;;;;;;;;;;4992176;28;19930;-65
2021/01/19 02:59:15;;;;;;;;;;;;;;;;;;4988856;28;20024;-65
2021/01/19 03:01:42;;;;;;;;;;;;;;;;;;4989529;28;19925;-64
2021/01/19 03:04:09;;;;;;;;;;;;;;;;;;4990460;28;19936;-65
2021/01/19 03:06:36;;;;;;;;;;;;;;;;;;4989354;28;19930;-65
2021/01/19 03:09:03;;;;;;;;;;;;;;;;;;4989237;28;20316;-64
2021/01/19 03:11:30;;;;;;;;;;;;;;;;;;4988873;28;20402;-64
2021/01/19 03:13:57;;;;;;;;;;;;;;;;;;4989336;28;19929;-65
2021/01/19 03:16:25;;;;;;;;;;;;;;;;;;4989312;28;19980;-64
2021/01/19 03:18:52;;;;;;;;;;;;;;;;;;5001816;28;19936;-65
2021/01/19 03:21:19;;;;;;;;;;;;;;;;;;4996541;28;19929;-66
2021/01/19 03:23:46;;;;;;;;;;;;;;;;;;4989257;28;19926;-66
2021/01/19 03:26:13;;;;;;;;;;;;;;;;;;4990769;28;20016;-66
2021/01/19 03:28:41;;;;;;;;;;;;;;;;;;4994462;28;19938;-66
2021/01/19 03:31:08;;;;;;;;;;;;;;;;;;4996627;28;19930;-66
2021/01/19 03:33:35;;;;;;;;;;;;;;;;;;4990249;28;19933;-66
2021/01/19 03:36:02;;;;;;;;;;;;;;;;;;4990574;28;19925;-66
2021/01/19 03:38:29;;;;;;;;;;;;;;;;;;4988766;28;19932;-66
2021/01/19 03:40:56;;;;;;;;;;;;;;;;;;4989413;28;20315;-65
2021/01/19 03:43:24;;;;;;;;;;;;;;;;;;4979762;28;20274;-66
2021/01/19 03:45:51;;;;;;;;;;;;;;;;;;4990070;28;19929;-66
2021/01/19 03:48:18;;;;;;;;;;;;;;;;;;4985013;28;20331;-65
2021/01/19 03:50:45;;;;;;;;;;;;;;;;;;4992396;28;20388;-66
2021/01/19 03:53:12;;;;;;;;;;;;;;;;;;4999686;28;19947;-65
2021/01/19 03:55:39;;;;;;;;;;;;;;;;;;4992829;28;20025;-65
2021/01/19 03:58:06;;;;;;;;;;;;;;;;;;4993224;28;19930;-65
2021/01/19 04:00:33;;;;;;;;;;;;;;;;;;4996809;28;19930;-65
2021/01/19 04:03:00;;;;;;;;;;;;;;;;;;5010895;28;19951;-66
2021/01/19 04:05:27;;;;;;;;;;;;;;;;;;4993796;28;19993;-66
2021/01/19 04:07:55;;;;;;;;;;;;;;;;;;5012295;28;20262;-66
2021/01/19 04:10:22;;;;;;;;;;;;;;;;;;4991908;28;19926;-66
2021/01/19 04:12:49;;;;;;;;;;;;;;;;;;5001496;28;19933;-66
2021/01/19 04:15:16;;;;;;;;;;;;;;;;;;4990515;28;19965;-65
2021/01/19 04:17:43;;;;;;;;;;;;;;;;;;5004633;28;19925;-65
2021/01/19 04:20:10;;;;;;;;;;;;;;;;;;5000852;28;20024;-65
2021/01/19 04:22:38;;;;;;;;;;;;;;;;;;4998001;28;19948;-65
2021/01/19 04:25:05;;;;;;;;;;;;;;;;;;5006059;28;19929;-66
2021/01/19 04:27:32;;;;;;;;;;;;;;;;;;4999679;28;19932;-66
2021/01/19 04:30:03;;;;;;;;;;;;;;;;;;4992157;28;19926;-65
2021/01/19 04:32:31;;;;;;;;;;;;;;;;;;4982927;28;20370;-65
2021/01/19 04:34:58;;;;;;;;;;;;;;;;;;4998449;28;19930;-66
2021/01/19 04:37:25;;;;;;;;;;;;;;;;;;4993406;28;19946;-65
2021/01/19 04:39:52;;;;;;;;;;;;;;;;;;4995362;28;20027;-65
2021/01/19 04:42:19;;;;;;;;;;;;;;;;;;4992383;28;20274;-66
2021/01/19 04:44:46;;;;;;;;;;;;;;;;;;4992548;28;19940;-66
2021/01/19 04:47:13;;;;;;;;;;;;;;;;;;4992045;28;19932;-65
2021/01/19 04:49:40;;;;;;;;;;;;;;;;;;4990969;28;20333;-66
2021/01/19 04:52:07;;;;;;;;;;;;;;;;;;5007041;28;19936;-66
2021/01/19 04:54:35;;;;;;;;;;;;;;;;;;4994040;28;19926;-65
2021/01/19 04:57:02;;;;;;;;;;;;;;;;;;4996294;28;19926;-65
2021/01/19 04:59:29;;;;;;;;;;;;;;;;;;4991971;28;20009;-65
2021/01/19 05:01:57;;;;;;;;;;;;;;;;;;4991177;28;19934;-65
2021/01/19 05:04:24;;;;;;;;;;;;;;;;;;4980533;28;19934;-65
2021/01/19 05:06:51;;;;;;;;;;;;;;;;;;4984954;28;19934;-65
2021/01/19 05:09:18;;;;;;;;;;;;;;;;;;4975003;28;19930;-65
2021/01/19 05:11:45;;;;;;;;;;;;;;;;;;4972166;28;19957;-65
2021/01/19 05:14:12;;;;;;;;;;;;;;;;;;4969521;28;20277;-65
2021/01/19 05:16:39;;;;;;;;;;;;;;;;;;4974467;28;19936;-65
2021/01/19 05:19:07;;;;;;;;;;;;;;;;;;4964581;28;19946;-65
2021/01/19 05:21:34;;;;;;;;;;;;;;;;;;4974891;28;19930;-65
2021/01/19 05:24:01;;;;;;;;;;;;;;;;;;4972499;28;20390;-65
2021/01/19 05:26:28;;;;;;;;;;;;;;;;;;4972495;28;19930;-65
2021/01/19 05:28:55;;;;;;;;;;;;;;;;;;4972188;28;20013;-65
2021/01/19 05:31:22;;;;;;;;;;;;;;;;;;4974287;28;19930;-65
2021/01/19 05:33:49;;;;;;;;;;;;;;;;;;4973033;28;19930;-65
2021/01/19 05:36:16;;;;;;;;;;;;;;;;;;4985838;28;20369;-65
2021/01/19 05:38:43;;;;;;;;;;;;;;;;;;4975210;28;19926;-66
2021/01/19 05:41:10;;;;;;;;;;;;;;;;;;4969752;28;19926;-66
2021/01/19 05:43:38;;;;;;;;;;;;;;;;;;4965986;28;19933;-65
2021/01/19 05:46:05;;;;;;;;;;;;;;;;;;4956364;28;19930;-66
2021/01/19 05:48:32;;;;;;;;;;;;;;;;;;4967801;28;19930;-66
2021/01/19 05:51:00;;;;;;;;;;;;;;;;;;4971846;28;20005;-65
2021/01/19 05:53:27;;;;;;;;;;;;;;;;;;4972035;28;20374;-65
2021/01/19 05:55:54;;;;;;;;;;;;;;;;;;4971363;28;20126;-65
2021/01/19 05:58:21;;;;;;;;;;;;;;;;;;4971615;28;19937;-65
2021/01/19 06:00:48;;;;;;;;;;;;;;;;;;4972537;28;20341;-65
2021/01/19 06:03:29;;;;;;;;;;;;;;;;;;3978331;28;10000443;-65
2021/01/19 06:05:56;;;;;;;;;;;;;;;;;;1715656;28;10002015;-65
2021/01/19 06:08:24;;;;;;;;;;;;;;;;;;4985579;28;20027;-66
2021/01/19 06:10:51;;;;;;;;;;;;;;;;;;4983328;28;20020;-65
2021/01/19 06:13:18;;;;;;;;;;;;;;;;;;4971176;28;20013;-66
2021/01/19 06:15:45;;;;;;;;;;;;;;;;;;4973180;28;19985;-65
2021/01/19 06:18:12;;;;;;;;;;;;;;;;;;4990766;28;19936;-65
2021/01/19 06:20:39;;;;;;;;;;;;;;;;;;4979446;28;20303;-65
2021/01/19 06:23:07;;;;;;;;;;;;;;;;;;4970471;28;19930;-65
2021/01/19 06:25:34;;;;;;;;;;;;;;;;;;4975140;28;19925;-65
2021/01/19 06:28:01;;;;;;;;;;;;;;;;;;4958539;28;19934;-65
2021/01/19 06:30:28;;;;;;;;;;;;;;;;;;4972668;28;19930;-65
2021/01/19 06:32:55;;;;;;;;;;;;;;;;;;4967310;28;20278;-66
2021/01/19 06:35:22;;;;;;;;;;;;;;;;;;4968109;28;20441;-66
2021/01/19 06:37:50;;;;;;;;;;;;;;;;;;4968728;28;19993;-66
2021/01/19 06:40:17;;;;;;;;;;;;;;;;;;4965712;28;20382;-65
2021/01/19 06:42:44;;;;;;;;;;;;;;;;;;4968491;28;20005;-65
2021/01/19 06:45:11;;;;;;;;;;;;;;;;;;4975862;28;20364;-65
2021/01/19 06:47:39;;;;;;;;;;;;;;;;;;4987294;28;20296;-65
2021/01/19 06:50:06;;;;;;;;;;;;;;;;;;4974830;28;20024;-65
2021/01/19 06:52:34;;;;;;;;;;;;;;;;;;4963804;28;19926;-66
2021/01/19 06:55:01;;;;;;;;;;;;;;;;;;4967667;28;20511;-65
2021/01/19 06:57:28;;;;;;;;;;;;;;;;;;4965543;28;20007;-65
2021/01/19 06:59:55;;;;;;;;;;;;;;;;;;4960277;28;20032;-65
2021/01/19 07:02:22;;;;;;;;;;;;;;;;;;4979482;28;20313;-66
2021/01/19 07:04:49;;;;;;;;;;;;;;;;;;5001695;28;19929;-66
2021/01/19 07:07:18;;;;;;;;;;;;;;;;;;4985328;28;20065;-66
2021/01/19 07:09:45;;;;;;;;;;;;;;;;;;4990605;28;19929;-66
2021/01/19 07:12:12;;;;;;;;;;;;;;;;;;4979255;28;19992;-66
2021/01/19 07:14:39;;;;;;;;;;;;;;;;;;4984033;28;19929;-66
2021/01/19 07:17:07;;;;;;;;;;;;;;;;;;4984130;28;20374;-66
2021/01/19 07:19:34;;;;;;;;;;;;;;;;;;4984014;28;20058;-66
2021/01/19 07:22:02;;;;;;;;;;;;;;;;;;4992567;28;19933;-65
2021/01/19 07:24:29;;;;;;;;;;;;;;;;;;4986673;28;19944;-65
2021/01/19 07:26:56;;;;;;;;;;;;;;;;;;4994120;28;19929;-66
2021/01/19 07:29:23;;;;;;;;;;;;;;;;;;4996758;28;19957;-67
2021/01/19 07:31:51;;;;;;;;;;;;;;;;;;4993589;28;19936;-66
2021/01/19 07:34:18;;;;;;;;;;;;;;;;;;4991367;28;20013;-66
2021/01/19 07:36:45;;;;;;;;;;;;;;;;;;4985961;28;19930;-66
2021/01/19 07:39:13;;;;;;;;;;;;;;;;;;4990339;28;19930;-66
2021/01/19 07:41:42;;;;;;;;;;;;;;;;;;4992535;28;19940;-66
2021/01/19 07:44:09;;;;;;;;;;;;;;;;;;4986383;28;20307;-66
2021/01/19 07:46:41;;;;;;;;;;;;;;;;;;4990494;28;19937;-67
2021/01/19 07:49:09;;;;;;;;;;;;;;;;;;4983733;28;20013;-67
2021/01/19 07:51:37;;;;;;;;;;;;;;;;;;4991462;28;19937;-66
2021/01/19 07:54:04;;;;;;;;;;;;;;;;;;4986549;28;19936;-67
2021/01/19 07:56:31;;;;;;;;;;;;;;;;;;4986177;28;20036;-66
2021/01/19 07:58:59;;;;;;;;;;;;;;;;;;4990958;28;19937;-66
2021/01/19 08:01:26;;;;;;;;;;;;;;;;;;4969318;28;20298;-66
2021/01/19 08:03:54;;;;;;;;;;;;;;;;;;4988781;28;19930;-67
2021/01/19 08:06:21;;;;;;;;;;;;;;;;;;4985619;28;19930;-67
2021/01/19 08:08:48;;;;;;;;;;;;;;;;;;4979321;28;19937;-66
2021/01/19 08:11:16;;;;;;;;;;;;;;;;;;4993079;28;19930;-67
2021/01/19 08:13:55;;;;;;;;;;;;;;;;;;4967905;28;19937;-67
2021/01/19 08:16:22;;;;;;;;;;;;;;;;;;4982773;28;20401;-66
2021/01/19 08:18:50;;;;;;;;;;;;;;;;;;4988197;28;20874;-67
2021/01/19 08:21:17;;;;;;;;;;;;;;;;;;4990006;28;20374;-66
2021/01/19 08:23:45;;;;;;;;;;;;;;;;;;4991492;28;19926;-66
2021/01/19 08:26:12;;;;;;;;;;;;;;;;;;4991175;28;19935;-66
2021/01/19 08:28:40;;;;;;;;;;;;;;;;;;4992562;28;19926;-66
2021/01/19 08:31:07;;;;;;;;;;;;;;;;;;4992118;28;19930;-67
2021/01/19 08:33:36;;;;;;;;;;;;;;;;;;4993849;28;19926;-66
2021/01/19 08:36:04;;;;;;;;;;;;;;;;;;4993348;28;20368;-67
2021/01/19 08:38:31;;;;;;;;;;;;;;;;;;4986292;28;20174;-67
2021/01/19 08:41:02;;;;;;;;;;;;;;;;;;4991434;28;20012;-66
2021/01/19 08:43:29;;;;;;;;;;;;;;;;;;4987987;28;19965;-67
2021/01/19 08:45:57;;;;;;;;;;;;;;;;;;4989605;28;20344;-65
2021/01/19 08:48:24;;;;;;;;;;;;;;;;;;4981032;28;20018;-66
2021/01/19 08:50:52;;;;;;;;;;;;;;;;;;4983571;28;20481;-65
2021/01/19 08:53:19;;;;;;;;;;;;;;;;;;4997251;28;19929;-66
2021/01/19 08:55:47;;;;;;;;;;;;;;;;;;4989377;28;19988;-65
2021/01/19 08:58:14;;;;;;;;;;;;;;;;;;4990124;28;20385;-66
2021/01/19 09:00:42;;;;;;;;;;;;;;;;;;4992929;28;19933;-67
2021/01/19 09:03:09;;;;;;;;;;;;;;;;;;4981215;28;19945;-67
2021/01/19 09:05:38;;;;;;;;;;;;;;;;;;4984075;28;19997;-66
2021/01/19 09:08:05;;;;;;;;;;;;;;;;;;4981313;28;20304;-66
2021/01/19 09:10:33;;;;;;;;;;;;;;;;;;4993844;28;19933;-66
2021/01/19 09:13:00;;;;;;;;;;;;;;;;;;4992668;28;19929;-66
2021/01/19 09:15:28;;;;;;;;;;;;;;;;;;4985536;28;19977;-67
2021/01/19 09:17:55;;;;;;;;;;;;;;;;;;4983078;28;19930;-67
2021/01/19 09:20:23;;;;;;;;;;;;;;;;;;4984934;28;20333;-66
2021/01/19 09:23:15;;;;;;;;;;;;;;;;;;4989967;28;19937;-67
2021/01/19 09:25:43;;;;;;;;;;;;;;;;;;4978246;28;20005;-66
2021/01/19 09:28:10;;;;;;;;;;;;;;;;;;4995821;28;20334;-65
2021/01/19 09:30:39;;;;;;;;;;;;;;;;;;4990083;28;20356;-66
2021/01/19 09:33:06;;;;;;;;;;;;;;;;;;4986128;28;20017;-66
2021/01/19 09:35:34;;;;;;;;;;;;;;;;;;4989566;28;19968;-67
2021/01/19 09:38:01;;;;;;;;;;;;;;;;;;4986555;28;19934;-67
2021/01/19 09:40:29;;;;;;;;;;;;;;;;;;4987015;28;19965;-67
2021/01/19 09:42:57;;;;;;;;;;;;;;;;;;4992979;28;19925;-66
2021/01/19 09:45:24;;;;;;;;;;;;;;;;;;4988296;28;20687;-66
2021/01/19 09:47:56;;;;;;;;;;;;;;;;;;4990335;28;19941;-66
2021/01/19 09:50:25;;;;;;;;;;;;;;;;;;4983067;28;20360;-66
2021/01/19 09:52:54;;;;;;;;;;;;;;;;;;4989737;28;19968;-66
2021/01/19 09:55:21;;;;;;;;;;;;;;;;;;4990062;28;20020;-66
2021/01/19 09:57:49;;;;;;;;;;;;;;;;;;4984184;28;20020;-67
2021/01/19 10:00:17;;;;;;;;;;;;;;;;;;4984823;28;19965;-67
2021/01/19 10:02:44;;;;;;;;;;;;;;;;;;4982116;28;19929;-66
2021/01/19 10:05:12;;;;;;;;;;;;;;;;;;4984172;28;20298;-68
2021/01/19 10:07:39;;;;;;;;;;;;;;;;;;4990505;28;19926;-67
2021/01/19 10:10:07;;;;;;;;;;;;;;;;;;4985976;28;20024;-68
2021/01/19 10:12:34;;;;;;;;;;;;;;;;;;4990873;28;20374;-67
2021/01/19 10:15:02;;;;;;;;;;;;;;;;;;4987016;28;19938;-68
2021/01/19 10:17:30;;;;;;;;;;;;;;;;;;4989772;28;19929;-67
2021/01/19 10:19:57;;;;;;;;;;;;;;;;;;4988324;28;20043;-67
2021/01/19 10:22:25;;;;;;;;;;;;;;;;;;4989728;28;20009;-67
2021/01/19 10:24:52;;;;;;;;;;;;;;;;;;4990949;28;19960;-67
2021/01/19 10:27:20;;;;;;;;;;;;;;;;;;4988550;28;20328;-67
2021/01/19 10:29:47;;;;;;;;;;;;;;;;;;4974296;28;20285;-68
2021/01/19 10:32:16;;;;;;;;;;;;;;;;;;4989227;28;19926;-67
2021/01/19 10:34:44;;;;;;;;;;;;;;;;;;4996458;28;19969;-67
2021/01/19 10:37:11;;;;;;;;;;;;;;;;;;4994415;28;19933;-68
2021/01/19 10:39:39;;;;;;;;;;;;;;;;;;4982126;28;19949;-67
2021/01/19 10:42:06;;;;;;;;;;;;;;;;;;4989344;28;19929;-68
2021/01/19 10:44:37;;;;;;;;;;;;;;;;;;4991209;28;19973;-67
2021/01/19 10:47:04;;;;;;;;;;;;;;;;;;4983468;28;19933;-67
2021/01/19 10:49:31;;;;;;;;;;;;;;;;;;4989372;28;19930;-68
2021/01/19 10:51:59;;;;;;;;;;;;;;;;;;4988549;28;20378;-68
2021/01/19 10:54:26;;;;;;;;;;;;;;;;;;4990414;28;20396;-68
2021/01/19 10:56:54;;;;;;;;;;;;;;;;;;4988602;28;19926;-68
2021/01/19 10:59:21;;;;;;;;;;;;;;;;;;4980214;28;19941;-68
2021/01/19 11:01:49;;;;;;;;;;;;;;;;;;4991620;28;19934;-69
2021/01/19 11:04:16;;;;;;;;;;;;;;;;;;4983414;28;19934;-68
2021/01/19 11:06:44;;;;;;;;;;;;;;;;;;4991276;28;20025;-67
2021/01/19 11:09:11;;;;;;;;;;;;;;;;;;4984998;28;20378;-67
2021/01/19 11:11:39;;;;;;;;;;;;;;;;;;4986734;28;20297;-67
2021/01/19 11:14:07;;;;;;;;;;;;;;;;;;4992114;28;19930;-67
2021/01/19 11:16:34;;;;;;;;;;;;;;;;;;4986516;28;19926;-68
2021/01/19 11:19:02;;;;;;;;;;;;;;;;;;4981487;28;19930;-68
2021/01/19 11:21:30;;;;;;;;;;;;;;;;;;4982698;28;19933;-67
2021/01/19 11:23:58;;;;;;;;;;;;;;;;;;4987554;28;19973;-67
2021/01/19 11:26:25;;;;;;;;;;;;;;;;;;4990393;28;19926;-68
2021/01/19 11:28:53;;;;;;;;;;;;;;;;;;4987051;28;19965;-67
2021/01/19 11:31:20;;;;;;;;;;;;;;;;;;4990981;28;19947;-67
2021/01/19 11:33:48;;;;;;;;;;;;;;;;;;4981692;28;19949;-68
2021/01/19 11:36:15;;;;;;;;;;;;;;;;;;4984303;28;19926;-68
2021/01/19 11:38:43;;;;;;;;;;;;;;;;;;4984282;28;19965;-68
2021/01/19 11:41:10;;;;;;;;;;;;;;;;;;4987882;28;19925;-68
2021/01/19 11:43:37;;;;;;;;;;;;;;;;;;4987711;28;20421;-68
2021/01/19 11:46:05;;;;;;;;;;;;;;;;;;4990072;28;19929;-68
2021/01/19 11:48:33;;;;;;;;;;;;;;;;;;4992296;28;20300;-68
2021/01/19 11:51:00;;;;;;;;;;;;;;;;;;4994225;28;20322;-68
2021/01/19 11:53:29;;;;;;;;;;;;;;;;;;4988122;28;20021;-68
2021/01/19 11:55:58;;;;;;;;;;;;;;;;;;4992416;28;19929;-67
2021/01/19 11:58:25;;;;;;;;;;;;;;;;;;4992176;28;20373;-68
2021/01/19 12:00:53;;;;;;;;;;;;;;;;;;4986933;28;20518;-67
2021/01/19 12:03:20;;;;;;;;;;;;;;;;;;4988205;28;20310;-68
2021/01/19 12:05:48;;;;;;;;;;;;;;;;;;4987478;28;19926;-68
2021/01/19 12:08:16;;;;;;;;;;;;;;;;;;4989941;28;20054;-68
2021/01/19 12:10:44;;;;;;;;;;;;;;;;;;4975910;28;19930;-68
2021/01/19 12:13:12;;;;;;;;;;;;;;;;;;4983207;28;19930;-67
2021/01/19 12:15:42;;;;;;;;;;;;;;;;;;4993235;28;20401;-67
2021/01/19 12:18:10;;;;;;;;;;;;;;;;;;4981630;28;19937;-68
2021/01/19 12:20:37;;;;;;;;;;;;;;;;;;4993882;28;20413;-67
2021/01/19 12:23:05;;;;;;;;;;;;;;;;;;4989080;28;20202;-68
2021/01/19 12:25:33;;;;;;;;;;;;;;;;;;4989668;28;19936;-68
2021/01/19 12:28:02;;;;;;;;;;;;;;;;;;4990743;28;19949;-68
2021/01/19 12:30:30;;;;;;;;;;;;;;;;;;4981802;28;20282;-68
2021/01/19 12:32:58;;;;;;;;;;;;;;;;;;4988992;28;20319;-68
2021/01/19 12:35:26;;;;;;;;;;;;;;;;;;4988864;28;19934;-68
2021/01/19 12:37:53;;;;;;;;;;;;;;;;;;4982682;28;19945;-67
2021/01/19 12:40:21;;;;;;;;;;;;;;;;;;4979340;28;19933;-69
2021/01/19 12:42:49;;;;;;;;;;;;;;;;;;4987875;28;19936;-68
2021/01/19 12:45:17;;;;;;;;;;;;;;;;;;4987358;28;19926;-67
2021/01/19 12:47:44;;;;;;;;;;;;;;;;;;4987905;28;20374;-67
2021/01/19 12:50:12;;;;;;;;;;;;;;;;;;4992307;28;20341;-68
2021/01/19 12:52:40;;;;;;;;;;;;;;;;;;4993299;28;19953;-69
2021/01/19 12:55:07;;;;;;;;;;;;;;;;;;4985876;28;19930;-68
2021/01/19 12:57:35;;;;;;;;;;;;;;;;;;4992793;28;19925;-68
2021/01/19 13:00:02;;;;;;;;;;;;;;;;;;4988401;28;19933;-68
2021/01/19 13:02:30;;;;;;;;;;;;;;;;;;4976705;28;19952;-68
2021/01/19 13:04:59;;;;;;;;;;;;;;;;;;4986464;28;19930;-68
2021/01/19 13:07:27;;;;;;;;;;;;;;;;;;4979251;28;19929;-68
2021/01/19 13:09:54;;;;;;;;;;;;;;;;;;4990099;28;20422;-66
2021/01/19 13:12:22;;;;;;;;;;;;;;;;;;4983735;28;19957;-67
2021/01/19 13:14:50;;;;;;;;;;;;;;;;;;4993262;28;20334;-67
2021/01/19 13:17:17;;;;;;;;;;;;;;;;;;4992048;28;19929;-67
2021/01/19 13:19:45;;;;;;;;;;;;;;;;;;4992032;28;20341;-67
2021/01/19 13:22:13;;;;;;;;;;;;;;;;;;4988523;28;19938;-68
2021/01/19 13:24:40;;;;;;;;;;;;;;;;;;4975352;28;20354;-67
2021/01/19 13:27:08;;;;;;;;;;;;;;;;;;4992269;28;20399;-68
2021/01/19 13:29:36;;;;;;;;;;;;;;;;;;4993648;28;20445;-67
2021/01/19 13:32:04;;;;;;;;;;;;;;;;;;4984210;28;19930;-67
2021/01/19 13:34:31;;;;;;;;;;;;;;;;;;4988531;28;19926;-67
2021/01/19 13:36:59;;;;;;;;;;;;;;;;;;4977462;28;19925;-67
2021/01/19 13:39:27;;;;;;;;;;;;;;;;;;4986892;28;19972;-67
2021/01/19 13:41:54;;;;;;;;;;;;;;;;;;4980379;28;19930;-68
2021/01/19 13:44:22;;;;;;;;;;;;;;;;;;4993826;28;19926;-68
2021/01/19 13:46:50;;;;;;;;;;;;;;;;;;4991524;28;20028;-67
2021/01/19 13:49:17;;;;;;;;;;;;;;;;;;4993728;28;20028;-67
2021/01/19 13:51:45;;;;;;;;;;;;;;;;;;4991335;28;19977;-68
2021/01/19 13:54:12;;;;;;;;;;;;;;;;;;4991576;28;19968;-67
2021/01/19 13:56:39;;;;;;;;;;;;;;;;;;4990594;28;19972;-67
2021/01/19 13:59:07;;;;;;;;;;;;;;;;;;4974865;28;19949;-67
2021/01/19 14:01:37;;;;;;;;;;;;;;;;;;4979813;28;19933;-68
2021/01/19 14:04:05;;;;;;;;;;;;;;;;;;4994983;28;19935;-68
2021/01/19 14:06:32;;;;;;;;;;;;;;;;;;4990348;28;19988;-66
2021/01/19 14:09:04;;;;;;;;;;;;;;;;;;4984163;28;19957;-66
2021/01/19 14:11:32;;;;;;;;;;;;;;;;;;4988988;28;19934;-67
2021/01/19 14:14:00;;;;;;;;;;;;;;;;;;4990028;28;20076;-68
2021/01/19 14:16:29;;;;;;;;;;;;;;;;;;4985704;28;19933;-67
2021/01/19 14:18:56;;;;;;;;;;;;;;;;;;4989818;28;19929;-68
2021/01/19 14:21:24;;;;;;;;;;;;;;;;;;4979436;28;19934;-67
2021/01/19 14:23:55;;;;;;;;;;;;;;;;;;4985949;28;19930;-67
2021/01/19 14:26:23;;;;;;;;;;;;;;;;;;4988238;28;19929;-67
2021/01/19 14:28:50;;;;;;;;;;;;;;;;;;4973656;28;19925;-67
2021/01/19 14:31:17;;;;;;;;;;;;;;;;;;4988557;28;20389;-67
2021/01/19 14:33:45;;;;;;;;;;;;;;;;;;4984924;28;20002;-66
2021/01/19 14:36:12;;;;;;;;;;;;;;;;;;4979526;28;19933;-66
2021/01/19 14:38:40;;;;;;;;;;;;;;;;;;4985621;28;19926;-67
2021/01/19 14:41:08;;;;;;;;;;;;;;;;;;4988048;28;19938;-66
2021/01/19 14:43:35;;;;;;;;;;;;;;;;;;4986808;28;20447;-67
2021/01/19 14:46:03;;;;;;;;;;;;;;;;;;4987244;28;19952;-66
2021/01/19 14:48:31;;;;;;;;;;;;;;;;;;4978734;28;20417;-66
2021/01/19 14:50:59;;;;;;;;;;;;;;;;;;4984055;28;19937;-66
2021/01/19 14:53:26;;;;;;;;;;;;;;;;;;4987695;28;19953;-68
2021/01/19 14:55:54;;;;;;;;;;;;;;;;;;4985402;28;19948;-66
2021/01/19 14:58:23;;;;;;;;;;;;;;;;;;4996267;28;19925;-68
2021/01/19 15:00:50;;;;;;;;;;;;;;;;;;4976737;28;19929;-66
2021/01/19 15:03:19;;;;;;;;;;;;;;;;;;4971957;28;19926;-66
2021/01/19 15:05:47;;;;;;;;;;;;;;;;;;4984991;28;20344;-66
2021/01/19 15:08:14;;;;;;;;;;;;;;;;;;4976799;28;19938;-66
2021/01/19 15:10:42;;;;;;;;;;;;;;;;;;4982126;28;20400;-67
2021/01/19 15:13:09;;;;;;;;;;;;;;;;;;4977203;28;20098;-66
2021/01/19 15:15:36;;;;;;;;;;;;;;;;;;4989152;28;20373;-67
2021/01/19 15:18:04;;;;;;;;;;;;;;;;;;4991078;28;20052;-66
2021/01/19 15:20:32;;;;;;;;;;;;;;;;;;4980492;28;20448;-66
2021/01/19 15:23:00;;;;;;;;;;;;;;;;;;4982232;28;19949;-67
2021/01/19 15:25:27;;;;;;;;;;;;;;;;;;4972883;28;19984;-66
2021/01/19 15:27:55;;;;;;;;;;;;;;;;;;4974619;28;20051;-68
2021/01/19 15:30:24;;;;;;;;;;;;;;;;;;4987070;28;20400;-67
2021/01/19 15:32:51;;;;;;;;;;;;;;;;;;4977254;28;19936;-66
2021/01/19 15:35:19;;;;;;;;;;;;;;;;;;4983502;28;20111;-67
2021/01/19 15:37:46;;;;;;;;;;;;;;;;;;4983031;28;20305;-68
2021/01/19 15:40:14;;;;;;;;;;;;;;;;;;4980373;28;19934;-67
2021/01/19 15:42:41;;;;;;;;;;;;;;;;;;4986246;28;20386;-67
2021/01/19 15:45:09;;;;;;;;;;;;;;;;;;4988951;28;19932;-67
2021/01/19 15:47:39;;;;;;;;;;;;;;;;;;4989068;28;19936;-66
2021/01/19 15:50:07;;;;;;;;;;;;;;;;;;4974906;28;20447;-66
2021/01/19 15:52:35;;;;;;;;;;;;;;;;;;4980824;28;19934;-66
2021/01/19 15:55:03;;;;;;;;;;;;;;;;;;4987995;28;19926;-66
2021/01/19 15:57:30;;;;;;;;;;;;;;;;;;4985354;28;19933;-66
2021/01/19 15:59:58;;;;;;;;;;;;;;;;;;4980332;28;20421;-67
2021/01/19 16:02:25;;;;;;;;;;;;;;;;;;4991036;28;20400;-67
2021/01/19 16:04:53;;;;;;;;;;;;;;;;;;4980141;28;19972;-66
2021/01/19 16:07:40;;;;;;;;;;;;;;;;;;4983715;28;19932;-67
2021/01/19 16:10:07;;;;;;;;;;;;;;;;;;4978042;28;19937;-68
2021/01/19 16:12:35;;;;;;;;;;;;;;;;;;4978182;28;20012;-65
2021/01/19 16:15:02;;;;;;;;;;;;;;;;;;4981013;28;19969;-66
2021/01/19 16:17:30;;;;;;;;;;;;;;;;;;4974260;28;19945;-65
2021/01/19 16:19:59;;;;;;;;;;;;;;;;;;4981137;28;19969;-68
2021/01/19 16:22:27;;;;;;;;;;;;;;;;;;4982011;28;19930;-67
2021/01/19 16:24:54;;;;;;;;;;;;;;;;;;4970250;28;19932;-67
2021/01/19 16:27:22;;;;;;;;;;;;;;;;;;4969882;28;21392;-67
2021/01/19 16:29:50;;;;;;;;;;;;;;;;;;4980534;28;20301;-67
2021/01/19 16:32:17;;;;;;;;;;;;;;;;;;4982552;28;19929;-67
2021/01/19 16:34:45;;;;;;;;;;;;;;;;;;4990570;28;20266;-67
2021/01/19 16:37:13;;;;;;;;;;;;;;;;;;4984976;28;19945;-66
2021/01/19 16:39:41;;;;;;;;;;;;;;;;;;4992615;28;19940;-66
2021/01/19 16:42:09;;;;;;;;;;;;;;;;;;4991987;28;19932;-66
2021/01/19 16:44:36;;;;;;;;;;;;;;;;;;4984892;28;19925;-67
2021/01/19 16:47:04;;;;;;;;;;;;;;;;;;4980775;28;19945;-67